Accueil
METAR-TAF:

METAR-TAF

Aéroports :

Base des Forces canadiennes Greenwood

Greenwood, Nouvelle-Écosse, Canada

latitude: 44-59N, longitude: 064-55W, altitude: 28 m

Observation

Le bulletin a été fait il y a 57 minutes, à 06:00 UTC
Vent calme
Température -7°C
Humidité 86%
Pression 1027 hPa
Visibilité: 24.1 km
Ciel clair

METAR: CYZX 200600Z 00000KT 15SM SKC M07/M09 A3034 RMK SLP277

Heure: 03:57 (06:57 UTC)

Prévision

Le bulletin a été fait il y a 1 heure et 27 minutes, à 05:30 UTC
Prévision valable du 20 à 06 UTC au 21 à 06 UTC
Vent 3 kt de direction variable
Visibilité: 10 km
Ciel clair
Evoluant progressivement
du 20 à 13 UTC au 20 à 15 UTC
Vent 15 kt de ouest
A partir de 20 à 2300 UTC
Vent 12 kt de ouest avec des rafales jusqu'à 22 kt
Visibilité: 10 km
Nuages fragmentés à une hauteur de 24000 ft

TAF: CYZX 200530Z 2006/2106 VRB03KT P6SM SKC BECMG 2013/2015 27015KT FM202300 26012G22KT P6SM BKN240 RMK NXT FCST BY 201200Z

Observations et prévisions météorologiques de plus de 4000 aéroports (messages METAR et TAF).

Les stations disponibles sont représentées par des disques jaunes et rouges sur la carte.

Passer la souris dessus pour voir le nom de la station.

Cliquer dessus pour voir les observations et prévisions météorologiques.

Pour changer de carte: cliquez sur les boutons verts avec une croix noire pour zoomer, sur le bouton vert avec un tiret pour effectuer un zoom arrière, ou sur les flèches vertes pour les cartes adjacentes.


METAR-TAF: